EDFM/MHG METAR and TAF weather

Enter ICAO airport designator
Station Type Date Time Source
EDFM METAR 2022/12/10 00:50 UTC NOAA

EDFM 100050Z AUTO 35005KT 9999 OVC056/// 01/M01 Q1006


Station Type Date Time Source
EDFM Decoded METAR 2022/12/10 00:50 UTC NOAA

Baden Wurttemberg, Neuostheim, Germany (EDFM) 49-28-21N 008-30-56E
Dec 09, 2022 - 07:50 PM EST / 2022.12.10 0050 UTC
Wind: from the N (350 degrees) at 6 MPH (5 KT):0
Visibility: greater than 7 mile(s):0
Sky conditions: overcast
Temperature: 33 F (1 C)
Windchill: 26 F (-3 C):1
Dew Point: 30 F (-1 C)
Relative Humidity: 86%
Pressure (altimeter): 29.71 in. Hg (1006 hPa)
ob: EDFM 100050Z AUTO 35005KT 9999 OVC056/// 01/M01 Q1006
cycle: 1

Station Type Date Time Source
EDFM TAF 2012/03/06 06:30 UTC NOAA

TAF EDFM 060519Z 0606/0621 15004KT 9999 FEW040

Example: see airport list